createdAt,value
2019-06-07T00:03:30.406Z,98.60
2019-06-07T00:08:56.059Z,98.70
2019-06-07T00:14:01.084Z,98.60
2019-06-07T00:19:07.203Z,98.40
2019-06-07T00:24:14.360Z,98.60
2019-06-07T00:29:21.681Z,98.90
2019-06-07T00:34:25.798Z,99.50
2019-06-07T00:39:30.758Z,99.90
2019-06-07T00:44:35.733Z,99.90
2019-06-07T00:49:41.742Z,99.90
2019-06-07T00:54:47.012Z,99.90
2019-06-07T00:59:52.079Z,99.90
2019-06-07T01:04:57.099Z,99.90
2019-06-07T01:10:02.158Z,99.90
2019-06-07T01:15:08.862Z,99.90
2019-06-07T01:20:14.241Z,99.90
2019-06-07T01:25:22.714Z,99.90
2019-06-07T01:30:26.843Z,99.90
2019-06-07T01:35:32.015Z,99.90
2019-06-07T01:40:36.963Z,99.90
2019-06-07T01:45:41.995Z,99.90
2019-06-07T01:50:46.942Z,99.90
2019-06-07T01:55:51.990Z,99.90
2019-06-07T02:00:56.943Z,99.90
2019-06-07T02:06:02.027Z,99.90
2019-06-07T02:11:07.150Z,99.90
2019-06-07T02:16:12.232Z,99.90
2019-06-07T02:21:17.283Z,99.90
2019-06-07T02:26:22.948Z,99.90
2019-06-07T02:31:36.244Z,99.90
2019-06-07T02:36:41.338Z,99.90
2019-06-07T02:41:42.339Z,99.90
2019-06-07T02:46:50.025Z,99.90
2019-06-07T02:51:54.885Z,99.90
2019-06-07T02:56:59.986Z,99.90
2019-06-07T03:02:05.098Z,99.90
2019-06-07T03:07:12.233Z,99.90
2019-06-07T03:12:20.403Z,99.90
2019-06-07T03:17:35.325Z,99.90
2019-06-07T03:22:42.051Z,99.90
2019-06-07T03:27:50.186Z,99.90
2019-06-07T03:32:55.223Z,99.90
2019-06-07T03:38:00.183Z,99.90
2019-06-07T03:43:05.286Z,99.90
2019-06-07T03:48:10.311Z,99.90
2019-06-07T03:53:15.286Z,99.90
2019-06-07T03:58:48.290Z,99.90
2019-06-07T04:03:36.081Z,99.90
2019-06-07T04:08:38.782Z,99.90
2019-06-07T04:13:42.633Z,99.90
2019-06-07T04:18:47.855Z,99.90
2019-06-07T04:23:52.907Z,99.90
2019-06-07T04:34:04.646Z,99.90
2019-06-07T04:39:09.630Z,99.90
2019-06-07T04:44:17.298Z,99.90
2019-06-07T04:49:25.164Z,99.90
2019-06-07T04:54:31.476Z,99.90
2019-06-07T05:04:44.365Z,99.90
2019-06-07T05:09:49.370Z,99.90
2019-06-07T05:14:54.326Z,99.90
2019-06-07T05:19:59.306Z,99.60
2019-06-07T05:25:05.122Z,99.40
2019-06-07T05:30:36.587Z,99.10
2019-06-07T05:35:17.599Z,99.40
2019-06-07T05:40:32.992Z,98.90
2019-06-07T05:45:42.328Z,98.60
2019-06-07T05:50:56.045Z,98.70
2019-06-07T05:55:52.642Z,98.60
2019-06-07T06:01:41.117Z,98.50
2019-06-07T06:06:04.651Z,98.50
2019-06-07T06:11:09.699Z,98.70
2019-06-07T06:16:14.745Z,97.80
2019-06-07T06:21:20.892Z,97.50
2019-06-07T06:26:25.888Z,97.20
2019-06-07T06:31:30.901Z,97.30
2019-06-07T06:36:37.365Z,98.30
2019-06-07T06:41:54.448Z,97.90
2019-06-07T06:46:57.270Z,98.60
2019-06-07T06:51:55.794Z,98.80
2019-06-07T06:57:18.539Z,98.10
2019-06-07T07:02:07.441Z,97.90
2019-06-07T07:07:12.542Z,98.00
2019-06-07T07:12:17.598Z,98.40
2019-06-07T07:17:47.057Z,98.40
2019-06-07T07:22:29.289Z,97.80
2019-06-07T07:27:34.262Z,98.00
2019-06-07T07:32:39.242Z,97.30
2019-06-07T07:37:46.166Z,97.20
2019-06-07T07:42:54.570Z,96.90
2019-06-07T07:48:14.174Z,96.00
2019-06-07T07:53:04.544Z,97.30
2019-06-07T07:58:09.627Z,97.70
2019-06-07T08:03:14.578Z,97.60
2019-06-07T08:08:19.770Z,97.80
2019-06-07T08:13:27.775Z,98.20
2019-06-07T08:18:33.834Z,98.10
2019-06-07T08:23:38.886Z,97.70
2019-06-07T08:28:44.929Z,96.70
2019-06-07T08:33:50.208Z,96.80
2019-06-07T08:39:02.999Z,95.50
2019-06-07T08:44:21.805Z,94.90
2019-06-07T08:49:08.481Z,94.70
2019-06-07T08:54:22.331Z,95.00
2019-06-07T08:59:20.198Z,94.50
2019-06-07T09:04:25.145Z,93.10
2019-06-07T09:09:30.179Z,94.20
2019-06-07T09:14:35.235Z,94.50
2019-06-07T09:19:41.418Z,93.00
2019-06-07T09:24:46.542Z,92.50
2019-06-07T09:29:51.714Z,90.70
2019-06-07T09:35:01.070Z,92.30
2019-06-07T09:51:33.807Z,90.10
2019-06-07T09:56:38.929Z,89.40
2019-06-07T10:01:43.971Z,90.10
2019-06-07T10:11:44.681Z,89.60
2019-06-07T10:16:49.937Z,85.70
2019-06-07T10:21:55.481Z,86.20
2019-06-07T10:27:01.705Z,81.60
2019-06-07T10:32:06.917Z,80.50
2019-06-07T10:37:15.674Z,81.00
2019-06-07T10:42:18.816Z,76.20
2019-06-07T10:47:23.784Z,74.40
2019-06-07T10:52:28.890Z,76.80
2019-06-07T10:57:34.002Z,77.40
2019-06-07T11:02:39.197Z,74.60
2019-06-07T11:07:44.182Z,73.30
2019-06-07T11:12:49.206Z,73.40
2019-06-07T11:17:54.071Z,74.40
2019-06-07T11:22:59.100Z,72.30
2019-06-07T11:28:04.258Z,72.60
2019-06-07T11:33:11.885Z,74.50
2019-06-07T11:38:15.712Z,74.80
2019-06-07T11:43:20.751Z,73.00
2019-06-07T11:48:25.719Z,78.50
2019-06-07T11:53:30.818Z,73.60
2019-06-07T11:58:35.726Z,72.70
2019-06-07T12:03:40.711Z,73.50
2019-06-07T12:08:45.706Z,73.90
2019-06-07T12:13:50.795Z,69.20
2019-06-07T12:18:55.732Z,68.30
2019-06-07T12:24:00.727Z,68.80
2019-06-07T12:29:05.783Z,70.00
2019-06-07T12:34:11.246Z,66.60
2019-06-07T12:39:16.422Z,67.50
2019-06-07T12:44:22.718Z,68.40
2019-06-07T12:49:27.963Z,67.30
2019-06-07T12:54:32.931Z,70.20
2019-06-07T12:59:37.894Z,62.40
2019-06-07T13:04:42.866Z,60.90
2019-06-07T13:09:47.837Z,64.20
2019-06-07T13:14:52.908Z,65.20
2019-06-07T13:19:57.929Z,60.40
2019-06-07T13:25:03.445Z,62.10
2019-06-07T13:30:10.949Z,64.00
2019-06-07T13:35:18.317Z,66.60
2019-06-07T13:40:23.669Z,64.80
2019-06-07T13:45:29.707Z,61.40
2019-06-07T13:50:34.757Z,61.20
2019-06-07T13:55:39.758Z,57.50
2019-06-07T14:00:44.831Z,59.00
2019-06-07T14:05:49.794Z,62.90
2019-06-07T14:10:54.688Z,66.80
2019-06-07T14:15:59.636Z,71.30
2019-06-07T14:21:04.706Z,65.40
2019-06-07T14:26:09.691Z,61.40
2019-06-07T14:31:14.729Z,58.60
2019-06-07T14:36:19.765Z,62.00
2019-06-07T14:41:25.179Z,65.20
2019-06-07T14:46:32.154Z,58.90
2019-06-07T14:51:38.303Z,64.40
2019-06-07T14:56:43.467Z,57.30
2019-06-07T15:01:48.474Z,53.10
2019-06-07T15:06:53.367Z,53.60
2019-06-07T15:11:58.339Z,53.30
2019-06-07T15:17:03.371Z,57.60
2019-06-07T15:22:08.334Z,57.20
2019-06-07T15:27:13.346Z,57.70
2019-06-07T15:32:18.242Z,57.00
2019-06-07T15:37:23.251Z,62.40
2019-06-07T15:42:45.123Z,56.80
2019-06-07T15:47:35.875Z,55.90
2019-06-07T15:52:43.220Z,58.70
2019-06-07T15:57:47.628Z,54.80
2019-06-07T16:02:52.662Z,50.20
2019-06-07T16:07:57.550Z,50.20
2019-06-07T16:13:02.601Z,57.00
2019-06-07T16:18:07.865Z,59.00
2019-06-07T16:23:12.987Z,60.20
2019-06-07T16:28:17.927Z,60.40
2019-06-07T16:33:22.867Z,57.70
2019-06-07T16:38:27.893Z,61.90
2019-06-07T16:43:32.912Z,66.00
2019-06-07T16:48:38.712Z,60.20
2019-06-07T16:53:44.545Z,50.90
2019-06-07T16:58:49.622Z,46.20
2019-06-07T17:03:54.664Z,40.10
2019-06-07T17:08:59.695Z,39.10
2019-06-07T17:14:05.106Z,41.00
2019-06-07T17:19:10.541Z,40.70
2019-06-07T17:24:15.474Z,42.30
2019-06-07T17:29:20.518Z,42.20
2019-06-07T17:34:25.526Z,41.70
2019-06-07T17:39:30.386Z,41.90
2019-06-07T17:44:35.354Z,41.30
2019-06-07T17:49:41.641Z,43.20
2019-06-07T17:54:47.933Z,44.50
2019-06-07T17:59:53.228Z,46.60
2019-06-07T18:04:58.306Z,47.90
2019-06-07T18:10:05.265Z,47.40
2019-06-07T18:15:11.683Z,49.40
2019-06-07T18:20:17.601Z,53.90
2019-06-07T18:25:22.547Z,59.50
2019-06-07T18:30:27.565Z,66.90
2019-06-07T18:35:32.519Z,72.10
2019-06-07T18:40:37.565Z,76.00
2019-06-07T18:45:42.582Z,79.30
2019-06-07T18:50:48.630Z,80.30
2019-06-07T18:55:54.044Z,82.80
2019-06-07T19:00:59.159Z,83.90
2019-06-07T19:06:04.302Z,84.50
2019-06-07T19:11:09.410Z,87.40
2019-06-07T19:16:14.427Z,90.00
2019-06-07T19:21:19.506Z,90.80
2019-06-07T19:26:24.484Z,91.20
2019-06-07T19:31:29.597Z,92.00
2019-06-07T19:36:47.964Z,91.70
2019-06-07T19:41:41.422Z,92.70
2019-06-07T19:46:46.407Z,93.10
2019-06-07T19:51:52.768Z,92.70
2019-06-07T19:56:57.779Z,93.50
2019-06-07T20:02:04.073Z,93.20
2019-06-07T20:07:09.385Z,93.70
2019-06-07T20:12:14.372Z,92.90
2019-06-07T20:17:19.410Z,93.40
2019-06-07T20:22:24.526Z,92.60
2019-06-07T20:27:29.571Z,93.60
2019-06-07T20:32:34.680Z,94.50
2019-06-07T20:37:39.701Z,94.70
2019-06-07T20:42:44.733Z,93.40
2019-06-07T20:47:49.855Z,93.70
2019-06-07T20:52:54.806Z,93.30
2019-06-07T20:58:00.822Z,92.70
2019-06-07T21:03:07.433Z,94.70
2019-06-07T21:08:13.188Z,92.10
2019-06-07T21:13:18.321Z,92.00
2019-06-07T21:18:23.275Z,92.90
2019-06-07T21:23:28.251Z,94.60
2019-06-07T21:28:33.359Z,92.40
2019-06-07T21:33:38.342Z,96.80
2019-06-07T21:38:44.390Z,94.50
2019-06-07T21:43:49.338Z,99.90
2019-06-07T21:48:54.287Z,93.30
2019-06-07T21:53:59.270Z,94.60
2019-06-07T21:59:05.067Z,93.60
2019-06-07T22:04:11.639Z,92.90
2019-06-07T22:09:16.978Z,92.60
2019-06-07T22:14:22.100Z,92.90
2019-06-07T22:19:27.155Z,93.70
2019-06-07T22:24:32.139Z,93.30
2019-06-07T22:29:37.169Z,92.80
2019-06-07T22:34:42.202Z,92.60
2019-06-07T22:39:47.240Z,94.50
2019-06-07T22:44:52.294Z,93.20
2019-06-07T22:49:57.311Z,92.30
2019-06-07T22:55:02.343Z,92.30
2019-06-07T23:00:10.419Z,92.70
2019-06-07T23:05:14.787Z,92.60
2019-06-07T23:10:20.157Z,94.00
2019-06-07T23:15:25.218Z,94.50
2019-06-07T23:20:30.287Z,94.00
2019-06-07T23:25:35.324Z,93.90
2019-06-07T23:30:40.329Z,94.50
2019-06-07T23:35:45.309Z,93.10
2019-06-07T23:40:50.318Z,95.00
2019-06-07T23:45:55.336Z,94.00
2019-06-07T23:51:00.409Z,94.40
2019-06-07T23:56:05.607Z,93.30
